createdAt,value
2019-05-05T00:01:58.334Z,3.86
2019-05-05T00:04:32.122Z,3.87
2019-05-05T00:07:01.807Z,3.85
2019-05-05T00:09:31.343Z,3.88
2019-05-05T00:12:10.942Z,3.96
2019-05-05T00:14:57.066Z,3.85
2019-05-05T00:17:28.152Z,3.70
2019-05-05T00:19:58.015Z,3.62
2019-05-05T00:22:29.085Z,3.69
2019-05-05T00:24:58.487Z,3.82
2019-05-05T00:27:29.416Z,3.80
2019-05-05T00:29:58.817Z,3.86
2019-05-05T00:32:28.254Z,3.90
2019-05-05T00:34:57.723Z,4.05
2019-05-05T00:37:27.199Z,4.21
2019-05-05T00:39:56.597Z,4.17
2019-05-05T00:42:26.047Z,4.18
2019-05-05T00:44:55.607Z,4.16
2019-05-05T00:47:26.696Z,4.03
2019-05-05T00:49:56.413Z,3.78
2019-05-05T00:52:25.937Z,3.66
2019-05-05T00:54:55.715Z,3.71
2019-05-05T00:57:25.151Z,3.79
2019-05-05T00:59:54.644Z,3.80
2019-05-05T01:02:40.487Z,3.79
2019-05-05T01:05:11.874Z,3.69
2019-05-05T01:07:41.376Z,3.68
2019-05-05T01:10:11.089Z,3.68
2019-05-05T01:12:40.524Z,3.84
2019-05-05T01:15:10.088Z,3.88
2019-05-05T01:17:39.522Z,4.16
2019-05-05T01:20:09.456Z,4.14
2019-05-05T01:22:38.956Z,4.15
2019-05-05T01:25:10.442Z,4.09
2019-05-05T01:27:40.648Z,4.07
2019-05-05T01:30:17.019Z,4.15
2019-05-05T01:32:50.808Z,4.05
2019-05-05T01:35:20.271Z,4.24
2019-05-05T01:37:57.595Z,4.26
2019-05-05T01:40:29.272Z,4.36
2019-05-05T01:42:59.241Z,4.36
2019-05-05T01:45:28.895Z,4.41
2019-05-05T01:47:58.465Z,4.34
2019-05-05T01:50:27.866Z,4.34
2019-05-05T01:52:57.300Z,4.36
2019-05-05T01:55:26.938Z,4.45
2019-05-05T01:57:56.768Z,4.48
2019-05-05T02:00:26.263Z,4.49
2019-05-05T02:02:55.776Z,4.51
2019-05-05T02:05:25.178Z,4.80
2019-05-05T02:07:55.354Z,5.03
2019-05-05T02:10:25.464Z,5.21
2019-05-05T02:12:55.242Z,5.28
2019-05-05T02:15:25.087Z,5.39
2019-05-05T02:17:55.121Z,5.36
2019-05-05T02:20:45.375Z,5.47
2019-05-05T02:23:16.636Z,5.56
2019-05-05T02:25:46.674Z,5.59
2019-05-05T02:28:17.928Z,5.64
2019-05-05T02:30:54.826Z,5.75
2019-05-05T02:33:26.160Z,5.82
2019-05-05T02:36:06.938Z,5.70
2019-05-05T02:38:36.463Z,5.77
2019-05-05T02:41:07.057Z,5.75
2019-05-05T02:43:38.210Z,5.83
2019-05-05T02:46:25.306Z,5.82
2019-05-05T02:49:00.052Z,5.80
2019-05-05T02:51:31.790Z,5.79
2019-05-05T02:54:04.542Z,5.70
2019-05-05T02:56:39.800Z,5.61
2019-05-05T02:59:11.621Z,5.68
2019-05-05T03:01:54.696Z,5.86
2019-05-05T03:04:36.100Z,5.61
2019-05-05T03:07:08.177Z,5.27
2019-05-05T03:09:38.935Z,5.00
2019-05-05T03:12:11.188Z,4.76
2019-05-05T03:14:44.493Z,4.66
2019-05-05T03:17:15.905Z,4.52
2019-05-05T03:19:45.604Z,4.43
2019-05-05T03:22:15.913Z,4.46
2019-05-05T03:24:46.927Z,4.50
2019-05-05T03:27:16.509Z,4.52
2019-05-05T03:29:46.915Z,4.66
2019-05-05T03:32:16.611Z,4.80
2019-05-05T03:34:46.418Z,4.90
2019-05-05T03:37:16.478Z,4.81
2019-05-05T03:39:48.496Z,4.77
2019-05-05T03:42:29.595Z,4.69
2019-05-05T03:45:01.009Z,4.69
2019-05-05T03:47:33.555Z,4.61
2019-05-05T03:50:04.377Z,4.64
2019-05-05T03:52:34.748Z,4.53
2019-05-05T03:55:09.953Z,4.52
2019-05-05T03:57:39.663Z,4.37
2019-05-05T04:00:11.561Z,4.30
2019-05-05T04:02:44.529Z,4.20
2019-05-05T04:05:16.135Z,4.32
2019-05-05T04:07:46.406Z,4.35
2019-05-05T04:10:17.619Z,4.46
2019-05-05T04:12:48.089Z,4.53
2019-05-05T04:15:17.628Z,4.52
2019-05-05T04:18:00.660Z,4.73
2019-05-05T04:20:33.599Z,4.77
2019-05-05T04:23:03.733Z,4.90
2019-05-05T04:25:35.000Z,4.90
2019-05-05T04:28:04.701Z,4.75
2019-05-05T04:30:34.169Z,4.73
2019-05-05T04:33:04.603Z,4.69
2019-05-05T04:35:34.258Z,4.53
2019-05-05T04:38:04.709Z,4.47
2019-05-05T04:40:34.656Z,4.48
2019-05-05T04:43:04.121Z,4.64
2019-05-05T04:45:35.434Z,4.63
2019-05-05T04:48:14.047Z,4.73
2019-05-05T04:50:45.092Z,4.99
2019-05-05T04:53:16.237Z,5.18
2019-05-05T04:55:45.625Z,5.20
2019-05-05T04:58:15.062Z,5.31
2019-05-05T05:00:44.527Z,5.47
2019-05-05T05:03:18.308Z,5.50
2019-05-05T05:05:54.994Z,5.66
2019-05-05T05:08:24.817Z,5.75
2019-05-05T05:10:54.406Z,5.91
2019-05-05T05:13:24.607Z,5.94
2019-05-05T05:15:54.130Z,5.92
2019-05-05T05:18:25.216Z,5.92
2019-05-05T05:20:55.026Z,5.90
2019-05-05T05:23:24.815Z,5.99
2019-05-05T05:25:54.597Z,5.97
2019-05-05T05:28:24.034Z,5.93
2019-05-05T05:30:54.531Z,5.93
2019-05-05T05:33:24.071Z,6.08
2019-05-05T05:35:54.671Z,6.16
2019-05-05T05:38:24.951Z,6.21
2019-05-05T05:40:56.091Z,6.51
2019-05-05T05:43:37.552Z,7.06
2019-05-05T05:46:13.519Z,7.78
2019-05-05T05:48:47.218Z,8.62
2019-05-05T05:51:19.512Z,9.16
2019-05-05T05:53:49.134Z,8.66
2019-05-05T05:56:18.575Z,8.28
2019-05-05T05:58:48.051Z,8.14
2019-05-05T06:01:17.558Z,7.66
2019-05-05T06:03:46.946Z,7.25
2019-05-05T06:06:17.931Z,7.26
2019-05-05T06:08:47.382Z,7.19
2019-05-05T06:11:16.878Z,7.31
2019-05-05T06:13:47.663Z,7.32
2019-05-05T06:16:17.173Z,7.40
2019-05-05T06:18:46.604Z,7.64
2019-05-05T06:21:16.195Z,7.77
2019-05-05T06:23:45.826Z,7.97
2019-05-05T06:26:15.547Z,8.27
2019-05-05T06:28:45.249Z,8.60
2019-05-05T06:31:15.582Z,8.64
2019-05-05T06:33:45.576Z,8.68
2019-05-05T06:36:14.976Z,8.39
2019-05-05T06:38:44.409Z,8.17
2019-05-05T06:41:18.666Z,8.27
2019-05-05T06:43:49.783Z,8.78
2019-05-05T06:46:24.332Z,9.64
2019-05-05T06:48:53.973Z,10.30
2019-05-05T06:51:24.547Z,10.96
2019-05-05T06:53:54.148Z,11.55
2019-05-05T06:56:23.869Z,11.54
2019-05-05T06:58:54.120Z,11.50
2019-05-05T07:01:25.354Z,11.65
2019-05-05T07:03:54.794Z,11.81
2019-05-05T07:06:24.199Z,12.02
2019-05-05T07:08:54.568Z,12.13
2019-05-05T07:11:24.309Z,11.88
2019-05-05T07:13:53.855Z,12.18
2019-05-05T07:16:24.329Z,12.43
2019-05-05T07:18:54.773Z,12.52
2019-05-05T07:21:24.177Z,12.88
2019-05-05T07:23:54.109Z,11.71
2019-05-05T07:26:23.862Z,11.29
2019-05-05T07:28:54.127Z,10.70
2019-05-05T07:31:23.986Z,10.59
2019-05-05T07:33:54.463Z,10.52
2019-05-05T07:36:35.198Z,10.46
2019-05-05T07:39:07.090Z,10.15
2019-05-05T07:41:36.499Z,10.26
2019-05-05T07:44:06.031Z,10.28
2019-05-05T07:46:35.441Z,10.29
2019-05-05T07:49:05.116Z,10.27
2019-05-05T07:51:34.600Z,10.03
2019-05-05T07:54:04.259Z,9.91
2019-05-05T07:56:34.373Z,10.38
2019-05-05T07:59:04.140Z,11.77
2019-05-05T08:01:33.963Z,12.23
2019-05-05T08:04:04.458Z,12.81
2019-05-05T08:06:35.630Z,13.31
2019-05-05T08:09:06.803Z,13.72
2019-05-05T08:11:36.244Z,13.92
2019-05-05T08:14:05.663Z,13.89
2019-05-05T08:16:39.452Z,14.42
2019-05-05T08:19:27.281Z,13.98
2019-05-05T08:21:56.746Z,13.65
2019-05-05T08:24:30.483Z,14.05
2019-05-05T08:27:14.434Z,14.62
2019-05-05T08:29:48.472Z,13.63
2019-05-05T08:32:28.466Z,14.40
2019-05-05T08:35:00.758Z,14.24
2019-05-05T08:37:29.190Z,13.62
2019-05-05T08:39:58.597Z,13.05
2019-05-05T08:42:28.063Z,14.77
2019-05-05T08:44:57.527Z,15.13
2019-05-05T08:47:28.617Z,15.61
2019-05-05T08:49:58.043Z,14.71
2019-05-05T08:52:27.558Z,14.45
2019-05-05T08:54:57.028Z,15.70
2019-05-05T08:57:28.224Z,16.25
2019-05-05T08:59:57.618Z,16.11
2019-05-05T09:02:27.144Z,14.83
2019-05-05T09:04:56.551Z,13.72
2019-05-05T09:07:25.991Z,13.42
2019-05-05T09:09:55.408Z,13.46
2019-05-05T09:12:24.905Z,12.85
2019-05-05T09:14:54.328Z,12.85
2019-05-05T09:17:24.456Z,13.28
2019-05-05T09:19:55.094Z,12.85
2019-05-05T09:22:24.701Z,12.59
2019-05-05T09:24:56.913Z,11.94
2019-05-05T09:27:34.727Z,11.17
2019-05-05T09:30:05.661Z,11.53
2019-05-05T09:32:35.112Z,13.23
2019-05-05T09:35:06.508Z,12.87
2019-05-05T09:37:36.036Z,12.75
2019-05-05T09:40:06.919Z,12.64
2019-05-05T09:42:36.426Z,12.79
2019-05-05T09:45:07.776Z,12.17
2019-05-05T09:47:37.611Z,12.29
2019-05-05T09:50:07.796Z,11.93
2019-05-05T09:52:37.258Z,12.08
2019-05-05T09:55:07.991Z,11.66
2019-05-05T09:57:37.436Z,11.36
2019-05-05T10:00:10.076Z,11.90
2019-05-05T10:02:41.051Z,12.14
2019-05-05T10:05:10.958Z,11.52
2019-05-05T10:07:40.402Z,12.28
2019-05-05T10:10:10.478Z,12.62
2019-05-05T10:12:39.951Z,12.75
2019-05-05T10:15:09.529Z,12.06
2019-05-05T10:17:38.970Z,12.32
2019-05-05T10:20:10.277Z,12.26
2019-05-05T10:22:39.799Z,12.38
2019-05-05T10:25:27.931Z,12.66
2019-05-05T10:27:57.965Z,13.10
2019-05-05T10:30:27.439Z,13.24
2019-05-05T10:32:57.018Z,13.53
2019-05-05T10:35:26.676Z,13.05
2019-05-05T10:37:56.088Z,12.45
2019-05-05T10:40:33.898Z,11.88
2019-05-05T10:43:04.503Z,12.11
2019-05-05T10:45:35.767Z,11.71
2019-05-05T10:48:05.416Z,11.32
2019-05-05T10:50:34.944Z,10.76
2019-05-05T10:53:04.794Z,10.67
2019-05-05T10:55:34.875Z,10.44
2019-05-05T10:58:04.488Z,9.70
2019-05-05T11:00:44.444Z,8.99
2019-05-05T11:03:15.130Z,8.44
2019-05-05T11:05:45.392Z,8.30
2019-05-05T11:08:15.339Z,8.12
2019-05-05T11:10:45.341Z,8.09
2019-05-05T11:13:15.095Z,8.27
2019-05-05T11:15:44.687Z,8.94
2019-05-05T11:18:15.112Z,9.66
2019-05-05T11:20:45.211Z,10.10
2019-05-05T11:23:15.376Z,11.05
2019-05-05T11:25:45.060Z,11.47
2019-05-05T11:28:14.490Z,12.16
2019-05-05T11:30:47.164Z,12.44
2019-05-05T11:33:36.466Z,12.58
2019-05-05T11:36:07.280Z,12.69
2019-05-05T11:38:36.716Z,13.17
2019-05-05T11:41:06.331Z,13.79
2019-05-05T11:43:35.838Z,14.04
2019-05-05T11:46:05.342Z,13.65
2019-05-05T11:48:34.801Z,14.14
2019-05-05T11:51:05.832Z,13.90
2019-05-05T11:53:35.307Z,13.70
2019-05-05T11:56:04.879Z,14.72
2019-05-05T11:58:34.316Z,13.81
2019-05-05T12:01:04.039Z,13.05
2019-05-05T12:03:34.111Z,13.35
2019-05-05T12:06:04.142Z,14.06
2019-05-05T12:08:34.707Z,15.07
2019-05-05T12:11:06.307Z,16.81
2019-05-05T12:13:35.860Z,14.47
2019-05-05T12:16:06.229Z,14.18
2019-05-05T12:18:35.749Z,15.08
2019-05-05T12:21:05.524Z,16.72
2019-05-05T12:23:35.998Z,16.07
2019-05-05T12:26:24.397Z,14.71
2019-05-05T12:28:55.671Z,15.15
2019-05-05T12:31:35.719Z,14.28
2019-05-05T12:34:06.468Z,13.92
2019-05-05T12:36:36.087Z,14.34
2019-05-05T12:39:08.906Z,14.33
2019-05-05T12:41:39.383Z,14.22
2019-05-05T12:44:10.557Z,14.79
2019-05-05T12:46:41.677Z,14.26
2019-05-05T12:49:13.841Z,15.54
2019-05-05T12:51:43.678Z,14.82
2019-05-05T12:54:14.718Z,13.34
2019-05-05T12:56:45.866Z,12.98
2019-05-05T12:59:16.938Z,14.15
2019-05-05T13:01:46.403Z,15.23
2019-05-05T13:04:15.962Z,15.68
2019-05-05T13:06:45.353Z,15.53
2019-05-05T13:09:16.105Z,15.85
2019-05-05T13:11:45.674Z,16.76
2019-05-05T13:14:16.756Z,16.36
2019-05-05T13:16:52.397Z,15.52
2019-05-05T13:19:24.064Z,16.31
2019-05-05T13:21:57.464Z,15.43
2019-05-05T13:24:46.724Z,15.67
2019-05-05T13:27:19.864Z,14.54
2019-05-05T13:29:49.575Z,15.05
2019-05-05T13:32:19.090Z,16.40
2019-05-05T13:34:48.515Z,16.44
2019-05-05T13:37:17.964Z,16.14
2019-05-05T13:39:47.438Z,15.20
2019-05-05T13:42:16.882Z,15.09
2019-05-05T13:44:56.915Z,14.85
2019-05-05T13:47:26.482Z,15.51
2019-05-05T13:49:57.540Z,15.23
2019-05-05T13:52:26.978Z,15.94
2019-05-05T13:54:56.401Z,16.02
2019-05-05T13:57:25.818Z,15.08
2019-05-05T13:59:55.330Z,15.59
2019-05-05T14:02:24.770Z,15.87
2019-05-05T14:04:54.308Z,15.18
2019-05-05T14:07:24.108Z,15.86
2019-05-05T14:09:54.951Z,16.67
2019-05-05T14:12:24.557Z,16.51
2019-05-05T14:14:54.626Z,16.53
2019-05-05T14:17:24.879Z,14.94
2019-05-05T14:20:02.477Z,15.29
2019-05-05T14:22:25.423Z,16.21
2019-05-05T14:25:00.434Z,15.19
2019-05-05T14:27:31.672Z,15.81
2019-05-05T14:30:11.978Z,14.17
2019-05-05T14:32:43.841Z,12.92
2019-05-05T14:35:17.946Z,12.45
2019-05-05T14:37:54.939Z,11.51
2019-05-05T14:40:24.381Z,11.30
2019-05-05T14:42:54.027Z,11.05
2019-05-05T14:45:23.706Z,10.85
2019-05-05T14:47:53.647Z,11.07
2019-05-05T14:50:24.183Z,11.26
2019-05-05T14:52:53.750Z,11.57
2019-05-05T14:55:25.444Z,12.91
2019-05-05T14:57:54.486Z,13.14
2019-05-05T15:00:25.346Z,12.60
2019-05-05T15:02:55.461Z,12.24
2019-05-05T15:05:35.687Z,12.03
2019-05-05T15:08:24.183Z,12.05
2019-05-05T15:11:00.869Z,12.07
2019-05-05T15:13:30.326Z,12.09
2019-05-05T15:15:59.866Z,12.25
2019-05-05T15:18:29.316Z,11.81
2019-05-05T15:20:58.836Z,11.95
2019-05-05T15:23:28.461Z,12.02
2019-05-05T15:25:57.973Z,11.72
2019-05-05T15:28:27.576Z,11.92
2019-05-05T15:30:57.020Z,11.87
2019-05-05T15:33:26.598Z,11.49
2019-05-05T15:35:56.127Z,11.15
2019-05-05T15:38:26.103Z,10.51
2019-05-05T15:40:55.901Z,10.28
2019-05-05T15:43:25.428Z,9.96
2019-05-05T15:45:54.854Z,9.90
2019-05-05T15:48:24.282Z,9.64
2019-05-05T15:50:54.638Z,10.03
2019-05-05T15:53:24.555Z,10.29
2019-05-05T15:55:54.197Z,10.47
2019-05-05T15:58:23.737Z,10.94
2019-05-05T16:01:06.642Z,11.17
2019-05-05T16:03:36.113Z,11.87
2019-05-05T16:06:05.535Z,11.94
2019-05-05T16:08:35.007Z,11.48
2019-05-05T16:11:04.491Z,11.72
2019-05-05T16:13:35.362Z,11.70
2019-05-05T16:16:06.789Z,11.50
2019-05-05T16:18:37.965Z,11.16
2019-05-05T16:21:18.311Z,10.71
2019-05-05T16:23:55.180Z,10.43
2019-05-05T16:26:26.216Z,9.86
2019-05-05T16:28:55.641Z,9.76
2019-05-05T16:31:27.578Z,10.05
2019-05-05T16:33:56.421Z,10.03
2019-05-05T16:36:27.305Z,9.85
2019-05-05T16:38:56.745Z,10.34
2019-05-05T16:41:26.320Z,10.65
2019-05-05T16:43:55.964Z,10.64
2019-05-05T16:46:25.544Z,10.91
2019-05-05T16:48:54.999Z,10.70
2019-05-05T16:51:29.078Z,10.51
2019-05-05T16:54:00.175Z,10.37
2019-05-05T16:56:30.054Z,9.98
2019-05-05T16:58:59.540Z,9.75
2019-05-05T17:01:29.129Z,9.81
2019-05-05T17:06:41.291Z,10.45
2019-05-05T17:09:10.733Z,10.43
2019-05-05T17:11:40.334Z,10.16
2019-05-05T17:14:11.449Z,9.96
2019-05-05T17:16:48.616Z,9.73
2019-05-05T17:19:33.767Z,9.37
2019-05-05T17:22:07.877Z,9.28
2019-05-05T17:24:38.888Z,9.15
2019-05-05T17:27:08.466Z,8.94
2019-05-05T17:29:37.930Z,8.85
2019-05-05T17:32:07.582Z,8.77
2019-05-05T17:34:37.006Z,8.76
2019-05-05T17:37:06.517Z,8.72
2019-05-05T17:39:37.603Z,8.78
2019-05-05T17:42:15.007Z,8.83
2019-05-05T17:44:46.123Z,8.67
2019-05-05T17:47:24.447Z,8.47
2019-05-05T17:49:58.516Z,8.36
2019-05-05T17:52:46.027Z,8.24
2019-05-05T17:58:16.009Z,7.92
2019-05-05T18:00:48.095Z,7.78
2019-05-05T18:03:17.545Z,7.72
2019-05-05T18:06:06.036Z,7.65
2019-05-05T18:08:37.154Z,7.55
2019-05-05T18:14:06.844Z,7.41
2019-05-05T18:16:36.249Z,7.41
2019-05-05T18:19:05.916Z,7.55
2019-05-05T18:21:36.832Z,7.61
2019-05-05T18:24:07.028Z,7.56
2019-05-05T18:26:36.728Z,7.27
2019-05-05T18:29:06.188Z,6.77
2019-05-05T18:31:35.882Z,6.65
2019-05-05T18:34:06.859Z,6.66
2019-05-05T18:36:36.290Z,6.67
2019-05-05T18:39:08.303Z,6.61
2019-05-05T18:41:58.593Z,6.56
2019-05-05T18:44:33.502Z,6.45
2019-05-05T18:47:14.395Z,6.27
2019-05-05T18:49:42.451Z,6.28
2019-05-05T18:52:13.792Z,6.05
2019-05-05T18:54:43.614Z,5.97
2019-05-05T18:57:13.259Z,5.84
2019-05-05T18:59:44.717Z,5.79
2019-05-05T19:02:31.856Z,5.71
2019-05-05T19:05:04.749Z,5.58
2019-05-05T19:07:38.369Z,5.51
2019-05-05T19:10:08.408Z,5.39
2019-05-05T19:12:38.192Z,5.43
2019-05-05T19:15:07.878Z,5.45
2019-05-05T19:17:37.313Z,5.47
2019-05-05T19:20:09.448Z,5.51
2019-05-05T19:22:38.882Z,5.60
2019-05-05T19:25:17.344Z,5.80
2019-05-05T19:27:47.094Z,5.69
2019-05-05T19:30:18.056Z,5.76
2019-05-05T19:32:47.535Z,5.79
2019-05-05T19:35:16.977Z,5.83
2019-05-05T19:37:46.469Z,5.86
2019-05-05T19:40:16.049Z,5.84
2019-05-05T19:42:46.294Z,5.89
2019-05-05T19:45:15.955Z,5.83
2019-05-05T19:47:45.467Z,5.80
2019-05-05T19:50:18.287Z,5.79
2019-05-05T19:52:47.842Z,5.79
2019-05-05T19:55:17.347Z,5.87
2019-05-05T19:57:46.957Z,5.87
2019-05-05T20:00:18.109Z,5.84
2019-05-05T20:03:00.424Z,5.85
2019-05-05T20:05:18.957Z,5.80
2019-05-05T20:07:49.317Z,5.79
2019-05-05T20:10:19.002Z,5.80
2019-05-05T20:12:48.502Z,5.71
2019-05-05T20:15:25.612Z,5.63
2019-05-05T20:17:55.244Z,5.60
2019-05-05T20:20:24.676Z,5.53
2019-05-05T20:22:54.775Z,5.45
2019-05-05T20:25:24.495Z,5.30
2019-05-05T20:27:55.979Z,5.33
2019-05-05T20:30:26.642Z,5.36
2019-05-05T20:32:57.790Z,5.36
2019-05-05T20:35:29.048Z,5.22
2019-05-05T20:38:06.113Z,5.13
2019-05-05T20:40:37.194Z,4.99
2019-05-05T20:43:06.630Z,4.88
2019-05-05T20:45:36.398Z,4.78
2019-05-05T20:48:06.358Z,4.71
2019-05-05T20:50:35.924Z,4.68
2019-05-05T20:53:05.463Z,4.68
2019-05-05T20:55:34.883Z,4.70
2019-05-05T20:58:04.779Z,4.70
2019-05-05T21:00:34.895Z,4.76
2019-05-05T21:03:05.000Z,4.79
2019-05-05T21:05:34.873Z,4.72
2019-05-05T21:08:06.150Z,4.68
2019-05-05T21:10:35.592Z,4.68
2019-05-05T21:13:06.562Z,4.68
2019-05-05T21:15:36.169Z,4.67
2019-05-05T21:18:05.681Z,4.64
2019-05-05T21:20:35.119Z,4.63
2019-05-05T21:23:14.338Z,4.65
2019-05-05T21:25:54.484Z,4.73
2019-05-05T21:28:24.195Z,4.84
2019-05-05T21:30:54.147Z,5.04
2019-05-05T21:33:24.067Z,5.04
2019-05-05T21:35:55.106Z,5.09
2019-05-05T21:38:24.722Z,5.16
2019-05-05T21:40:54.168Z,5.21
2019-05-05T21:43:25.138Z,5.29
2019-05-05T21:45:54.602Z,5.30
2019-05-05T21:48:25.853Z,5.34
2019-05-05T21:50:56.941Z,5.34
2019-05-05T21:53:44.273Z,5.37
2019-05-05T21:56:34.078Z,5.41
2019-05-05T21:59:04.157Z,5.49
2019-05-05T22:01:39.759Z,5.56
2019-05-05T22:04:06.045Z,5.60
2019-05-05T22:06:35.566Z,5.67
2019-05-05T22:09:06.910Z,5.65
2019-05-05T22:11:36.340Z,5.87
2019-05-05T22:14:05.906Z,5.82
2019-05-05T22:16:35.573Z,5.83
2019-05-05T22:19:06.207Z,5.94
2019-05-05T22:21:43.735Z,5.90
2019-05-05T22:24:15.923Z,5.89
2019-05-05T22:26:45.738Z,5.84
2019-05-05T22:29:18.780Z,5.80
2019-05-05T22:31:48.937Z,5.73
2019-05-05T22:34:18.524Z,5.65
2019-05-05T22:36:48.037Z,5.72
2019-05-05T22:39:17.678Z,5.59
2019-05-05T22:41:47.172Z,5.51
2019-05-05T22:44:16.817Z,5.42
2019-05-05T22:46:46.579Z,5.36
2019-05-05T22:49:16.138Z,5.31
2019-05-05T22:51:45.662Z,5.22
2019-05-05T22:54:16.746Z,5.33
2019-05-05T22:56:46.249Z,5.25
2019-05-05T22:59:15.845Z,5.22
2019-05-05T23:01:45.440Z,5.34
2019-05-05T23:04:31.843Z,5.34
2019-05-05T23:07:03.868Z,5.37
2019-05-05T23:09:33.415Z,5.37
2019-05-05T23:12:04.208Z,5.52
2019-05-05T23:14:34.373Z,5.52
2019-05-05T23:17:22.067Z,5.46
2019-05-05T23:19:59.179Z,5.47
2019-05-05T23:22:48.448Z,5.40
2019-05-05T23:25:25.723Z,5.41
2019-05-05T23:27:56.845Z,5.47
2019-05-05T23:30:38.569Z,5.43
2019-05-05T23:32:57.542Z,5.50
2019-05-05T23:35:26.935Z,5.50
2019-05-05T23:37:56.379Z,5.55
2019-05-05T23:40:27.394Z,5.54
2019-05-05T23:42:56.831Z,5.55
2019-05-05T23:45:26.231Z,5.41
2019-05-05T23:47:55.802Z,5.41
2019-05-05T23:50:25.304Z,5.32
2019-05-05T23:52:54.893Z,5.40
2019-05-05T23:55:24.577Z,5.39
2019-05-05T23:57:54.908Z,5.57
